createdAt,value
2018-03-07T00:00:57.575Z,50.43
2018-03-07T00:03:25.456Z,53.30
2018-03-07T00:05:53.134Z,49.53
2018-03-07T00:08:21.572Z,49.77
2018-03-07T00:10:49.236Z,62.13
2018-03-07T00:13:16.860Z,51.07
2018-03-07T00:15:44.815Z,51.33
2018-03-07T00:18:13.289Z,50.17
2018-03-07T00:20:41.933Z,50.03
2018-03-07T00:23:09.687Z,52.07
2018-03-07T00:25:37.381Z,50.43
2018-03-07T00:28:05.067Z,51.47
2018-03-07T00:30:32.827Z,50.10
2018-03-07T00:33:01.309Z,47.03
2018-03-07T00:35:28.953Z,45.50
2018-03-07T00:37:57.407Z,42.77
2018-03-07T00:40:25.216Z,44.20
2018-03-07T00:42:52.831Z,51.23
2018-03-07T00:45:20.629Z,48.27
2018-03-07T00:47:48.291Z,49.00
2018-03-07T00:50:15.949Z,40.10
2018-03-07T00:52:43.619Z,46.13
2018-03-07T00:55:11.336Z,41.70
2018-03-07T00:57:39.239Z,43.03
2018-03-07T01:00:06.990Z,52.80
2018-03-07T01:02:35.480Z,42.80
2018-03-07T01:05:03.120Z,48.90
2018-03-07T01:07:31.541Z,40.07
2018-03-07T01:09:59.200Z,45.37
2018-03-07T01:12:27.021Z,47.83
2018-03-07T01:14:54.749Z,45.17
2018-03-07T01:17:22.494Z,45.67
2018-03-07T01:19:50.124Z,45.73
2018-03-07T01:22:18.582Z,47.17
2018-03-07T01:24:47.040Z,43.90
2018-03-07T01:27:14.708Z,45.43
2018-03-07T01:29:42.368Z,44.13
2018-03-07T01:32:10.080Z,46.20
2018-03-07T01:34:37.776Z,42.13
2018-03-07T01:37:05.489Z,48.83
2018-03-07T01:39:33.927Z,42.07
2018-03-07T01:42:01.545Z,40.43
2018-03-07T01:44:29.201Z,41.07
2018-03-07T01:46:57.688Z,48.10
2018-03-07T01:49:25.412Z,40.73
2018-03-07T01:52:01.703Z,39.13
2018-03-07T01:54:29.365Z,46.13
2018-03-07T01:56:57.086Z,39.60
2018-03-07T01:59:25.582Z,33.90
2018-03-07T02:01:54.005Z,41.97
2018-03-07T02:04:21.867Z,38.93
2018-03-07T02:06:49.648Z,36.43
2018-03-07T02:09:17.323Z,37.60
2018-03-07T02:11:44.972Z,43.03
2018-03-07T02:14:12.631Z,34.17
2018-03-07T02:16:40.287Z,35.37
2018-03-07T02:19:08.071Z,34.50
2018-03-07T02:21:35.743Z,34.20
2018-03-07T02:24:04.244Z,34.03
2018-03-07T02:26:31.926Z,28.10
2018-03-07T02:29:00.408Z,32.60
2018-03-07T02:31:28.333Z,31.90
2018-03-07T02:33:56.745Z,32.73
2018-03-07T02:36:33.328Z,27.17
2018-03-07T02:39:00.996Z,27.30
2018-03-07T02:41:28.656Z,25.03
2018-03-07T02:43:56.330Z,24.17
2018-03-07T02:46:24.038Z,24.47
2018-03-07T02:48:51.677Z,24.40
2018-03-07T02:51:20.264Z,22.93
2018-03-07T02:53:48.708Z,21.43
2018-03-07T02:56:16.355Z,20.70
2018-03-07T02:58:44.023Z,24.23
2018-03-07T03:01:11.701Z,26.67
2018-03-07T03:03:39.336Z,23.30
2018-03-07T03:06:07.056Z,21.50
2018-03-07T03:08:35.441Z,27.60
2018-03-07T03:11:03.089Z,20.83
2018-03-07T03:13:31.515Z,22.00
2018-03-07T03:15:59.187Z,22.80
2018-03-07T03:18:26.809Z,23.90
2018-03-07T03:20:54.471Z,21.40
2018-03-07T03:23:22.137Z,20.70
2018-03-07T03:25:49.763Z,19.50
2018-03-07T03:28:18.356Z,19.00
2018-03-07T03:30:46.023Z,19.47
2018-03-07T03:33:13.898Z,18.50
2018-03-07T03:35:42.989Z,20.60
2018-03-07T03:38:10.687Z,17.00
2018-03-07T03:40:38.932Z,16.90
2018-03-07T03:43:06.621Z,16.70
2018-03-07T03:45:34.323Z,14.03
2018-03-07T03:48:02.824Z,15.60
2018-03-07T03:50:30.536Z,14.37
2018-03-07T03:52:58.180Z,15.50
2018-03-07T03:55:25.900Z,13.20
2018-03-07T03:57:53.630Z,14.40
2018-03-07T04:00:22.111Z,14.80
2018-03-07T04:02:50.496Z,13.93
2018-03-07T04:05:19.026Z,16.30
2018-03-07T04:07:47.544Z,15.30
2018-03-07T04:10:15.185Z,13.27
2018-03-07T04:12:42.859Z,12.80
2018-03-07T04:15:10.597Z,14.53
2018-03-07T04:17:38.284Z,12.73
2018-03-07T04:20:05.938Z,12.90
2018-03-07T04:22:33.604Z,12.83
2018-03-07T04:25:01.341Z,14.40
2018-03-07T04:27:29.140Z,12.20
2018-03-07T04:29:56.819Z,14.40
2018-03-07T04:32:25.225Z,13.67
2018-03-07T04:34:52.859Z,13.67
2018-03-07T04:37:20.620Z,11.10
2018-03-07T04:39:48.300Z,12.60
2018-03-07T04:42:15.964Z,12.33
2018-03-07T04:44:43.616Z,13.27
2018-03-07T04:47:11.282Z,10.67
2018-03-07T04:49:39.043Z,10.87
2018-03-07T04:52:06.740Z,11.20
2018-03-07T04:54:34.356Z,9.60
2018-03-07T04:57:02.107Z,11.73
2018-03-07T04:59:30.518Z,9.70
2018-03-07T05:01:58.402Z,12.13
2018-03-07T05:04:26.142Z,11.80
2018-03-07T05:06:53.800Z,11.70
2018-03-07T05:09:21.517Z,13.30
2018-03-07T05:11:49.959Z,11.57
2018-03-07T05:14:17.669Z,11.60
2018-03-07T05:16:46.092Z,9.40
2018-03-07T05:19:13.764Z,10.77
2018-03-07T05:21:41.516Z,10.60
2018-03-07T05:24:09.264Z,9.07
2018-03-07T05:26:36.935Z,9.30
2018-03-07T05:29:04.608Z,10.63
2018-03-07T05:31:32.265Z,10.97
2018-03-07T05:33:59.955Z,9.77
2018-03-07T05:36:28.432Z,11.53
2018-03-07T05:38:56.078Z,10.60
2018-03-07T05:41:23.729Z,12.27
2018-03-07T05:43:51.398Z,11.80
2018-03-07T05:46:19.039Z,12.97
2018-03-07T05:48:46.755Z,9.80
2018-03-07T05:51:14.558Z,13.23
2018-03-07T05:53:42.233Z,9.47
2018-03-07T05:56:09.941Z,11.27
2018-03-07T05:58:37.609Z,13.80
2018-03-07T06:01:05.257Z,13.17
2018-03-07T06:03:32.944Z,11.53
2018-03-07T06:06:00.669Z,12.80
2018-03-07T06:08:29.060Z,10.73
2018-03-07T06:10:57.557Z,11.03
2018-03-07T06:13:25.208Z,9.67
2018-03-07T06:15:52.834Z,11.00
2018-03-07T06:18:20.528Z,13.30
2018-03-07T06:20:48.206Z,14.17
2018-03-07T06:23:15.822Z,12.67
2018-03-07T06:25:43.479Z,14.80
2018-03-07T06:28:11.485Z,11.37
2018-03-07T06:30:39.159Z,11.03
2018-03-07T06:33:06.844Z,11.70
2018-03-07T06:35:34.574Z,11.13
2018-03-07T06:38:02.232Z,13.97
2018-03-07T06:40:29.870Z,9.47
2018-03-07T06:42:58.940Z,10.37
2018-03-07T06:45:26.611Z,11.57
2018-03-07T06:47:54.334Z,10.60
2018-03-07T06:50:22.110Z,13.20
2018-03-07T06:52:49.794Z,11.97
2018-03-07T06:55:18.271Z,10.70
2018-03-07T06:57:45.960Z,11.27
2018-03-07T07:00:14.207Z,12.17
2018-03-07T07:02:41.909Z,11.37
2018-03-07T07:05:09.640Z,11.20
2018-03-07T07:07:38.124Z,10.80
2018-03-07T07:10:05.840Z,9.90
2018-03-07T07:12:33.533Z,11.50
2018-03-07T07:15:01.190Z,12.87
2018-03-07T07:17:28.863Z,12.50
2018-03-07T07:19:57.320Z,10.70
2018-03-07T07:22:25.819Z,9.73
2018-03-07T07:24:53.504Z,9.90
2018-03-07T07:27:21.214Z,8.43
2018-03-07T07:29:48.928Z,9.87
2018-03-07T07:32:16.632Z,9.27
2018-03-07T07:34:44.346Z,9.00
2018-03-07T07:37:12.038Z,9.93
2018-03-07T07:39:39.769Z,7.50
2018-03-07T07:42:07.435Z,8.53
2018-03-07T07:44:35.082Z,8.90
2018-03-07T07:47:02.839Z,8.27
2018-03-07T07:49:31.346Z,8.80
2018-03-07T07:51:59.036Z,8.70
2018-03-07T07:54:26.785Z,9.17
2018-03-07T07:56:54.465Z,9.93
2018-03-07T07:59:22.188Z,13.80
2018-03-07T08:01:49.859Z,8.23
2018-03-07T08:04:17.568Z,12.10
2018-03-07T08:06:45.224Z,8.63
2018-03-07T08:09:13.681Z,11.53
2018-03-07T08:11:41.343Z,11.27
2018-03-07T08:14:09.057Z,11.33
2018-03-07T08:16:36.773Z,8.73
2018-03-07T08:19:04.435Z,10.90
2018-03-07T08:21:32.131Z,9.90
2018-03-07T08:24:00.578Z,9.07
2018-03-07T08:26:28.313Z,11.83
2018-03-07T08:28:55.962Z,10.77
2018-03-07T08:31:23.647Z,11.07
2018-03-07T08:33:51.357Z,12.90
2018-03-07T08:36:19.071Z,11.97
2018-03-07T08:38:47.567Z,13.73
2018-03-07T08:41:15.307Z,11.93
2018-03-07T08:43:42.961Z,10.17
2018-03-07T08:46:11.644Z,18.10
2018-03-07T08:48:39.615Z,15.60
2018-03-07T08:51:07.579Z,10.30
2018-03-07T08:53:35.313Z,17.10
2018-03-07T08:56:03.005Z,12.93
2018-03-07T08:58:30.693Z,14.33
2018-03-07T09:00:58.384Z,12.73
2018-03-07T09:03:26.464Z,15.80
2018-03-07T09:05:54.096Z,16.20
2018-03-07T09:08:22.560Z,16.03
2018-03-07T09:10:50.257Z,15.00
2018-03-07T09:13:17.914Z,13.30
2018-03-07T09:15:45.603Z,13.40
2018-03-07T09:18:13.291Z,13.20
2018-03-07T09:20:40.989Z,12.17
2018-03-07T09:23:08.678Z,13.10
2018-03-07T09:25:36.382Z,15.17
2018-03-07T09:28:04.147Z,13.63
2018-03-07T09:30:31.825Z,16.50
2018-03-07T09:33:00.307Z,16.53
2018-03-07T09:35:28.740Z,19.63
2018-03-07T09:37:56.456Z,14.40
2018-03-07T09:40:24.889Z,11.63
2018-03-07T09:42:52.644Z,12.03
2018-03-07T09:45:20.332Z,12.93
2018-03-07T09:47:48.025Z,17.97
2018-03-07T09:50:15.732Z,13.53
2018-03-07T09:52:44.221Z,8.07
2018-03-07T09:55:11.921Z,11.47
2018-03-07T09:57:39.659Z,16.07
2018-03-07T10:00:07.324Z,11.10
2018-03-07T10:02:34.979Z,12.20
2018-03-07T10:05:02.694Z,13.40
2018-03-07T10:07:30.402Z,10.87
2018-03-07T10:09:58.081Z,7.07
2018-03-07T10:12:26.520Z,7.33
2018-03-07T10:14:54.204Z,7.27
2018-03-07T10:17:22.684Z,7.40
2018-03-07T10:19:50.388Z,8.90
2018-03-07T10:22:18.109Z,6.37
2018-03-07T10:24:46.575Z,10.50
2018-03-07T10:27:14.295Z,11.80
2018-03-07T10:29:42.006Z,9.47
2018-03-07T10:32:09.660Z,6.90
2018-03-07T10:34:37.300Z,9.97
2018-03-07T10:37:05.004Z,6.20
2018-03-07T10:39:33.441Z,6.07
2018-03-07T10:42:01.116Z,10.90
2018-03-07T10:44:28.784Z,7.17
2018-03-07T10:46:56.561Z,10.17
2018-03-07T10:49:24.284Z,7.80
2018-03-07T10:51:51.946Z,8.10
2018-03-07T10:54:19.653Z,6.80
2018-03-07T10:56:48.057Z,7.50
2018-03-07T10:59:15.784Z,7.90
2018-03-07T11:01:44.232Z,15.93
2018-03-07T11:04:11.901Z,6.10
2018-03-07T11:06:39.596Z,13.10
2018-03-07T11:09:07.352Z,6.27
2018-03-07T11:11:35.762Z,8.30
2018-03-07T11:14:03.570Z,7.93
2018-03-07T11:16:31.289Z,9.70
2018-03-07T11:18:59.724Z,7.23
2018-03-07T11:21:28.159Z,12.13
2018-03-07T11:23:55.858Z,7.10
2018-03-07T11:26:23.510Z,9.80
2018-03-07T11:28:51.178Z,4.73
2018-03-07T11:31:19.630Z,5.37
2018-03-07T11:33:47.360Z,4.90
2018-03-07T11:36:15.040Z,5.13
2018-03-07T11:38:42.710Z,6.90
2018-03-07T11:41:11.178Z,2.17
2018-03-07T11:43:38.849Z,2.67
2018-03-07T11:46:06.520Z,7.80
2018-03-07T11:48:34.211Z,2.50
2018-03-07T11:51:02.668Z,7.80
2018-03-07T11:53:31.119Z,5.60
2018-03-07T11:55:58.762Z,4.30
2018-03-07T11:58:26.528Z,3.90
2018-03-07T12:00:54.220Z,3.30
2018-03-07T12:03:21.879Z,2.70
2018-03-07T12:05:49.579Z,4.70
2018-03-07T12:08:18.028Z,5.03
2018-03-07T12:10:45.678Z,3.30
2018-03-07T12:13:14.171Z,2.67
2018-03-07T12:15:41.973Z,6.07
2018-03-07T12:18:09.624Z,3.43
2018-03-07T12:20:37.313Z,4.63
2018-03-07T12:23:05.015Z,3.23
2018-03-07T12:25:33.474Z,3.10
2018-03-07T12:28:01.140Z,5.13
2018-03-07T12:30:29.492Z,10.13
2018-03-07T12:32:57.154Z,4.53
2018-03-07T12:35:25.647Z,8.07
2018-03-07T12:37:53.270Z,3.93
2018-03-07T12:40:20.919Z,2.93
2018-03-07T12:42:50.925Z,3.70
2018-03-07T12:45:19.361Z,2.70
2018-03-07T12:47:47.857Z,2.43
2018-03-07T12:50:15.608Z,3.03
2018-03-07T12:52:44.263Z,3.30
2018-03-07T12:55:12.074Z,2.10
2018-03-07T12:57:40.512Z,12.00
2018-03-07T13:00:08.275Z,3.83
2018-03-07T13:02:36.086Z,1.83
2018-03-07T13:05:03.808Z,2.90
2018-03-07T13:07:31.483Z,3.00
2018-03-07T13:09:59.218Z,5.27
2018-03-07T13:12:26.940Z,4.50
2018-03-07T13:14:54.673Z,3.83
2018-03-07T13:17:22.357Z,2.10
2018-03-07T13:19:50.816Z,2.80
2018-03-07T13:22:18.473Z,10.63
2018-03-07T13:24:46.125Z,3.47
2018-03-07T13:27:13.879Z,8.33
2018-03-07T13:29:41.520Z,1.87
2018-03-07T13:32:09.356Z,2.80
2018-03-07T13:34:37.807Z,2.97
2018-03-07T13:37:05.471Z,2.53
2018-03-07T13:39:33.156Z,2.17
2018-03-07T13:42:01.657Z,3.30
2018-03-07T13:44:29.372Z,3.17
2018-03-07T13:46:57.035Z,4.50
2018-03-07T13:49:25.556Z,4.80
2018-03-07T13:51:53.232Z,3.13
2018-03-07T13:54:20.972Z,2.50
2018-03-07T13:56:48.815Z,3.67
2018-03-07T13:59:16.484Z,2.87
2018-03-07T14:01:44.951Z,4.87
2018-03-07T14:04:13.417Z,3.20
2018-03-07T14:06:41.288Z,2.20
2018-03-07T14:09:08.941Z,2.20
2018-03-07T14:11:36.621Z,1.70
2018-03-07T14:14:05.077Z,1.73
2018-03-07T14:16:32.740Z,4.27
2018-03-07T14:19:00.407Z,2.83
2018-03-07T14:21:28.898Z,5.80
2018-03-07T14:23:57.285Z,2.30
2018-03-07T14:26:25.848Z,2.80
2018-03-07T14:28:54.355Z,3.20
2018-03-07T14:31:22.006Z,1.50
2018-03-07T14:33:50.484Z,1.63
2018-03-07T14:36:19.874Z,5.03
2018-03-07T14:38:48.291Z,1.80
2018-03-07T14:41:17.596Z,5.60
2018-03-07T14:43:45.264Z,6.10
2018-03-07T14:46:13.050Z,2.40
2018-03-07T14:48:40.726Z,2.23
2018-03-07T14:51:08.452Z,2.90
2018-03-07T14:53:36.164Z,4.07
2018-03-07T14:56:04.645Z,5.90
2018-03-07T14:58:33.064Z,2.30
2018-03-07T15:01:00.689Z,2.40
2018-03-07T15:03:29.106Z,2.87
2018-03-07T15:05:56.761Z,2.47
2018-03-07T15:08:24.389Z,5.00
2018-03-07T15:10:52.032Z,3.60
2018-03-07T15:13:20.447Z,3.13
2018-03-07T15:15:48.119Z,2.17
2018-03-07T15:18:15.778Z,4.00
2018-03-07T15:20:43.424Z,1.23
2018-03-07T15:23:11.043Z,2.00
2018-03-07T15:25:39.454Z,1.80
2018-03-07T15:28:08.325Z,5.30
2018-03-07T15:30:36.875Z,6.30
2018-03-07T15:33:04.552Z,1.03
2018-03-07T15:35:32.233Z,1.20
2018-03-07T15:37:59.881Z,1.87
2018-03-07T15:40:28.366Z,4.70
2018-03-07T15:42:56.804Z,7.37
2018-03-07T15:45:24.456Z,2.70
2018-03-07T15:47:52.164Z,1.73
2018-03-07T15:50:20.593Z,3.57
2018-03-07T15:52:48.235Z,6.17
2018-03-07T15:55:15.990Z,2.23
2018-03-07T15:57:43.676Z,15.53
2018-03-07T16:00:11.373Z,4.30
2018-03-07T16:02:39.836Z,14.83
2018-03-07T16:05:07.608Z,3.60
2018-03-07T16:07:35.279Z,53.87
2018-03-07T16:10:03.777Z,3.73
2018-03-07T16:12:31.506Z,3.33
2018-03-07T16:14:59.152Z,7.33
2018-03-07T16:17:27.667Z,5.53
2018-03-07T16:19:55.336Z,7.23
2018-03-07T16:22:23.043Z,2.40
2018-03-07T16:24:50.693Z,4.00
2018-03-07T16:27:18.486Z,1.80
2018-03-07T16:29:47.823Z,5.23
2018-03-07T16:32:15.573Z,1.37
2018-03-07T16:34:44.084Z,5.27
2018-03-07T16:37:11.710Z,17.07
2018-03-07T16:39:40.362Z,5.00
2018-03-07T16:42:08.024Z,6.40
2018-03-07T16:44:35.691Z,10.47
2018-03-07T16:47:03.390Z,9.50
2018-03-07T16:49:31.312Z,5.97
2018-03-07T16:51:58.979Z,2.83
2018-03-07T16:54:26.798Z,3.90
2018-03-07T16:56:54.654Z,4.90
2018-03-07T16:59:22.399Z,2.73
2018-03-07T17:01:50.836Z,2.10
2018-03-07T17:04:18.538Z,3.80
2018-03-07T17:06:46.979Z,2.73
2018-03-07T17:09:14.663Z,3.47
2018-03-07T17:11:43.112Z,4.33
2018-03-07T17:14:10.739Z,3.60
2018-03-07T17:16:38.509Z,3.13
2018-03-07T17:19:06.461Z,4.73
2018-03-07T17:21:34.205Z,2.60
2018-03-07T17:24:02.664Z,4.93
2018-03-07T17:26:30.842Z,3.10
2018-03-07T17:29:00.146Z,8.63
2018-03-07T17:31:28.265Z,9.03
2018-03-07T17:33:57.601Z,4.37
2018-03-07T17:36:30.251Z,3.80
2018-03-07T17:38:58.983Z,2.10
2018-03-07T17:41:28.617Z,5.43
2018-03-07T17:43:56.969Z,2.50
2018-03-07T17:46:25.488Z,1.77
2018-03-07T17:48:53.556Z,2.20
2018-03-07T17:51:21.874Z,7.50
2018-03-07T17:53:51.045Z,3.80
2018-03-07T17:56:19.672Z,3.93
2018-03-07T17:58:47.937Z,3.33
2018-03-07T18:01:16.400Z,2.63
2018-03-07T18:03:45.466Z,3.27
2018-03-07T18:06:13.602Z,2.87
2018-03-07T18:08:41.785Z,4.50
2018-03-07T18:11:09.795Z,4.43
2018-03-07T18:13:37.616Z,9.53
2018-03-07T18:16:15.568Z,3.50
2018-03-07T18:18:44.400Z,4.70
2018-03-07T18:21:13.537Z,5.13
2018-03-07T18:23:41.662Z,7.90
2018-03-07T18:26:09.888Z,4.53
2018-03-07T18:28:38.886Z,1.90
2018-03-07T18:31:07.939Z,1.57
2018-03-07T18:33:36.443Z,1.93
2018-03-07T18:36:04.737Z,2.57
2018-03-07T18:38:33.357Z,5.20
2018-03-07T18:41:01.051Z,2.57
2018-03-07T18:43:28.717Z,4.30
2018-03-07T18:45:56.399Z,2.23
2018-03-07T18:48:24.130Z,4.27
2018-03-07T18:50:51.843Z,3.83
2018-03-07T18:53:19.660Z,2.90
2018-03-07T18:55:47.319Z,1.73
2018-03-07T18:58:15.055Z,5.73
2018-03-07T19:00:42.784Z,8.47
2018-03-07T19:03:10.541Z,3.50
2018-03-07T19:05:38.260Z,3.43
2018-03-07T19:08:05.961Z,6.07
2018-03-07T19:10:33.696Z,2.83
2018-03-07T19:13:01.469Z,3.53
2018-03-07T19:15:30.116Z,3.53
2018-03-07T19:17:58.001Z,2.20
2018-03-07T19:20:25.745Z,2.70
2018-03-07T19:22:53.519Z,3.00
2018-03-07T19:25:21.364Z,4.60
2018-03-07T19:27:49.053Z,1.40
2018-03-07T19:30:16.769Z,8.57
2018-03-07T19:32:44.481Z,1.90
2018-03-07T19:35:12.275Z,2.30
2018-03-07T19:37:40.746Z,2.10
2018-03-07T19:40:08.686Z,2.63
2018-03-07T19:42:36.559Z,2.70
2018-03-07T19:45:04.538Z,3.83
2018-03-07T19:47:33.852Z,2.10
2018-03-07T19:50:01.687Z,5.43
2018-03-07T19:52:30.378Z,4.90
2018-03-07T19:54:58.391Z,2.70
2018-03-07T19:57:26.964Z,2.37
2018-03-07T19:59:55.324Z,2.47
2018-03-07T20:02:24.286Z,2.40
2018-03-07T20:04:52.319Z,2.10
2018-03-07T20:07:20.483Z,5.00
2018-03-07T20:09:48.625Z,23.57
2018-03-07T20:12:16.780Z,4.00
2018-03-07T20:14:44.689Z,3.00
2018-03-07T20:17:13.498Z,2.70
2018-03-07T20:19:41.413Z,4.17
2018-03-07T20:22:09.236Z,1.23
2018-03-07T20:24:37.235Z,1.70
2018-03-07T20:27:05.241Z,3.03
2018-03-07T20:29:33.221Z,1.30
2018-03-07T20:32:01.291Z,1.73
2018-03-07T20:34:29.020Z,2.20
2018-03-07T20:36:57.319Z,1.27
2018-03-07T20:39:25.207Z,2.43
2018-03-07T20:41:52.946Z,2.20
2018-03-07T20:44:21.101Z,1.40
2018-03-07T20:46:49.040Z,2.80
2018-03-07T20:49:18.102Z,1.47
2018-03-07T20:51:46.141Z,1.47
2018-03-07T20:54:14.081Z,2.93
2018-03-07T20:56:42.029Z,1.20
2018-03-07T20:59:09.906Z,1.20
2018-03-07T21:01:37.669Z,1.03
2018-03-07T21:04:06.214Z,1.10
2018-03-07T21:06:34.225Z,1.23
2018-03-07T21:09:02.940Z,1.53
2018-03-07T21:11:30.909Z,1.43
2018-03-07T21:13:59.058Z,1.43
2018-03-07T21:16:26.872Z,1.20
2018-03-07T21:18:55.674Z,1.70
2018-03-07T21:21:23.583Z,2.93
2018-03-07T21:23:52.098Z,1.10
2018-03-07T21:26:19.929Z,1.80
2018-03-07T21:28:47.877Z,4.70
2018-03-07T21:31:16.358Z,1.73
2018-03-07T21:33:44.115Z,4.50
2018-03-07T21:36:12.614Z,0.93
2018-03-07T21:38:40.315Z,1.80
2018-03-07T21:41:08.084Z,2.60
2018-03-07T21:43:35.787Z,1.50
2018-03-07T21:46:03.527Z,2.03
2018-03-07T21:48:32.993Z,1.03
2018-03-07T21:51:00.916Z,1.33
2018-03-07T21:53:29.592Z,4.27
2018-03-07T21:55:58.097Z,1.00
2018-03-07T21:58:25.852Z,2.13
2018-03-07T22:00:53.554Z,2.90
2018-03-07T22:03:22.468Z,3.97
2018-03-07T22:05:50.208Z,1.73
2018-03-07T22:08:18.272Z,1.93
2018-03-07T22:10:46.176Z,2.80
2018-03-07T22:13:15.008Z,0.73
2018-03-07T22:15:42.927Z,0.80
2018-03-07T22:18:11.650Z,1.40
2018-03-07T22:20:39.777Z,0.80
2018-03-07T22:23:08.540Z,0.67
2018-03-07T22:25:36.734Z,1.10
2018-03-07T22:28:04.807Z,0.97
2018-03-07T22:30:33.338Z,1.80
2018-03-07T22:33:01.040Z,1.40
2018-03-07T22:35:28.729Z,2.73
2018-03-07T22:37:57.256Z,1.00
2018-03-07T22:40:25.034Z,1.17
2018-03-07T22:42:52.704Z,1.10
2018-03-07T22:45:20.374Z,3.30
2018-03-07T22:47:48.039Z,1.37
2018-03-07T22:50:16.567Z,1.43
2018-03-07T22:52:44.237Z,1.20
2018-03-07T22:55:11.877Z,2.40
2018-03-07T22:57:39.559Z,1.33
2018-03-07T23:03:06.292Z,2.60
2018-03-07T23:05:37.992Z,1.00
2018-03-07T23:08:05.666Z,1.30
2018-03-07T23:10:34.131Z,1.00
2018-03-07T23:13:01.811Z,0.80
2018-03-07T23:15:30.220Z,1.33
2018-03-07T23:17:57.897Z,2.10
2018-03-07T23:20:25.568Z,2.27
2018-03-07T23:22:53.200Z,3.17
2018-03-07T23:25:20.868Z,2.33
2018-03-07T23:27:48.524Z,0.90
2018-03-07T23:30:17.028Z,1.90
2018-03-07T23:32:44.686Z,1.00
2018-03-07T23:35:12.348Z,0.87
2018-03-07T23:37:39.973Z,2.90
2018-03-07T23:40:07.649Z,1.20
2018-03-07T23:42:35.299Z,0.80
2018-03-07T23:45:02.980Z,1.47
2018-03-07T23:47:30.638Z,1.37
2018-03-07T23:49:58.304Z,1.10
2018-03-07T23:52:25.927Z,1.47
2018-03-07T23:54:54.341Z,0.90
2018-03-07T23:57:21.987Z,1.00
2018-03-07T23:59:49.672Z,0.97
